sensor_id;sensor_type;location;lat;lon;timestamp;P1;durP1;ratioP1;P2;durP2;ratioP2
7613;SDS011;3848;42.016;23.098;2024-02-28T00:02:03;3.13;;;2.53;;
7613;SDS011;3848;42.016;23.098;2024-02-28T00:04:31;3.83;;;2.70;;
7613;SDS011;3848;42.016;23.098;2024-02-28T00:06:58;3.87;;;2.83;;
7613;SDS011;3848;42.016;23.098;2024-02-28T00:09:25;5.23;;;3.27;;
7613;SDS011;3848;42.016;23.098;2024-02-28T00:11:51;4.33;;;2.93;;
7613;SDS011;3848;42.016;23.098;2024-02-28T00:14:19;3.17;;;2.80;;
7613;SDS011;3848;42.016;23.098;2024-02-28T00:16:47;4.37;;;3.20;;
7613;SDS011;3848;42.016;23.098;2024-02-28T00:19:14;4.47;;;2.83;;
7613;SDS011;3848;42.016;23.098;2024-02-28T00:21:42;4.93;;;3.47;;
7613;SDS011;3848;42.016;23.098;2024-02-28T00:24:09;5.37;;;3.57;;
7613;SDS011;3848;42.016;23.098;2024-02-28T00:26:37;7.30;;;3.20;;
7613;SDS011;3848;42.016;23.098;2024-02-28T00:29:06;4.30;;;3.20;;
7613;SDS011;3848;42.016;23.098;2024-02-28T00:31:33;4.30;;;3.00;;
7613;SDS011;3848;42.016;23.098;2024-02-28T00:34:02;14.50;;;3.50;;
7613;SDS011;3848;42.016;23.098;2024-02-28T00:36:29;6.17;;;4.73;;
7613;SDS011;3848;42.016;23.098;2024-02-28T00:38:56;4.97;;;4.17;;
7613;SDS011;3848;42.016;23.098;2024-02-28T00:41:23;5.80;;;4.50;;
7613;SDS011;3848;42.016;23.098;2024-02-28T00:43:50;5.13;;;4.57;;
7613;SDS011;3848;42.016;23.098;2024-02-28T00:46:17;7.80;;;5.27;;
7613;SDS011;3848;42.016;23.098;2024-02-28T00:48:44;9.20;;;5.20;;
7613;SDS011;3848;42.016;23.098;2024-02-28T00:51:12;8.27;;;5.37;;
7613;SDS011;3848;42.016;23.098;2024-02-28T00:53:39;7.67;;;5.23;;
7613;SDS011;3848;42.016;23.098;2024-02-28T00:56:08;6.63;;;3.87;;
7613;SDS011;3848;42.016;23.098;2024-02-28T00:58:35;4.03;;;3.47;;
7613;SDS011;3848;42.016;23.098;2024-02-28T01:01:03;4.40;;;2.73;;
7613;SDS011;3848;42.016;23.098;2024-02-28T01:03:30;4.57;;;3.03;;
7613;SDS011;3848;42.016;23.098;2024-02-28T01:05:57;4.33;;;3.37;;
7613;SDS011;3848;42.016;23.098;2024-02-28T01:08:27;4.30;;;3.70;;
7613;SDS011;3848;42.016;23.098;2024-02-28T01:10:54;8.93;;;4.80;;
7613;SDS011;3848;42.016;23.098;2024-02-28T01:13:21;8.70;;;4.40;;
7613;SDS011;3848;42.016;23.098;2024-02-28T01:15:49;8.77;;;5.37;;
7613;SDS011;3848;42.016;23.098;2024-02-28T01:18:16;8.40;;;4.27;;
7613;SDS011;3848;42.016;23.098;2024-02-28T01:20:43;7.73;;;5.63;;
7613;SDS011;3848;42.016;23.098;2024-02-28T01:23:10;5.67;;;4.67;;
7613;SDS011;3848;42.016;23.098;2024-02-28T01:25:38;13.13;;;5.60;;
7613;SDS011;3848;42.016;23.098;2024-02-28T01:28:06;11.03;;;5.20;;
7613;SDS011;3848;42.016;23.098;2024-02-28T01:30:33;10.20;;;6.07;;
7613;SDS011;3848;42.016;23.098;2024-02-28T01:32:59;12.33;;;6.33;;
7613;SDS011;3848;42.016;23.098;2024-02-28T01:35:26;8.93;;;5.67;;
7613;SDS011;3848;42.016;23.098;2024-02-28T01:37:53;8.57;;;5.43;;
7613;SDS011;3848;42.016;23.098;2024-02-28T01:40:20;8.00;;;6.00;;
7613;SDS011;3848;42.016;23.098;2024-02-28T01:42:49;14.93;;;5.13;;
7613;SDS011;3848;42.016;23.098;2024-02-28T01:45:16;10.20;;;5.70;;
7613;SDS011;3848;42.016;23.098;2024-02-28T01:47:43;8.83;;;5.50;;
7613;SDS011;3848;42.016;23.098;2024-02-28T01:50:10;11.27;;;5.37;;
7613;SDS011;3848;42.016;23.098;2024-02-28T01:52:38;9.63;;;5.33;;
7613;SDS011;3848;42.016;23.098;2024-02-28T01:55:06;11.83;;;5.90;;
7613;SDS011;3848;42.016;23.098;2024-02-28T01:57:34;13.60;;;6.07;;
7613;SDS011;3848;42.016;23.098;2024-02-28T02:00:05;9.17;;;4.87;;
7613;SDS011;3848;42.016;23.098;2024-02-28T02:02:34;9.47;;;5.97;;
7613;SDS011;3848;42.016;23.098;2024-02-28T02:05:01;13.10;;;6.03;;
7613;SDS011;3848;42.016;23.098;2024-02-28T02:07:29;14.20;;;6.20;;
7613;SDS011;3848;42.016;23.098;2024-02-28T02:09:57;9.13;;;5.60;;
7613;SDS011;3848;42.016;23.098;2024-02-28T02:12:24;9.87;;;5.63;;
7613;SDS011;3848;42.016;23.098;2024-02-28T02:14:52;11.73;;;5.43;;
7613;SDS011;3848;42.016;23.098;2024-02-28T02:17:20;13.33;;;6.00;;
7613;SDS011;3848;42.016;23.098;2024-02-28T02:19:47;16.60;;;5.50;;
7613;SDS011;3848;42.016;23.098;2024-02-28T02:22:14;11.30;;;5.17;;
7613;SDS011;3848;42.016;23.098;2024-02-28T02:24:44;8.57;;;4.70;;
7613;SDS011;3848;42.016;23.098;2024-02-28T02:27:11;8.53;;;5.00;;
7613;SDS011;3848;42.016;23.098;2024-02-28T02:29:38;7.30;;;5.37;;
7613;SDS011;3848;42.016;23.098;2024-02-28T02:32:05;5.80;;;4.53;;
7613;SDS011;3848;42.016;23.098;2024-02-28T02:34:32;8.40;;;4.37;;
7613;SDS011;3848;42.016;23.098;2024-02-28T02:36:59;7.67;;;5.53;;
7613;SDS011;3848;42.016;23.098;2024-02-28T02:39:26;8.07;;;5.17;;
7613;SDS011;3848;42.016;23.098;2024-02-28T02:41:55;12.80;;;5.37;;
7613;SDS011;3848;42.016;23.098;2024-02-28T02:44:21;8.43;;;5.17;;
7613;SDS011;3848;42.016;23.098;2024-02-28T02:46:48;5.83;;;4.93;;
7613;SDS011;3848;42.016;23.098;2024-02-28T02:49:15;7.30;;;4.90;;
7613;SDS011;3848;42.016;23.098;2024-02-28T02:51:44;12.47;;;5.47;;
7613;SDS011;3848;42.016;23.098;2024-02-28T02:54:11;11.40;;;5.10;;
7613;SDS011;3848;42.016;23.098;2024-02-28T02:56:40;5.83;;;4.87;;
7613;SDS011;3848;42.016;23.098;2024-02-28T02:59:09;8.90;;;4.73;;
7613;SDS011;3848;42.016;23.098;2024-02-28T03:01:36;10.57;;;5.90;;
7613;SDS011;3848;42.016;23.098;2024-02-28T03:04:03;13.33;;;6.07;;
7613;SDS011;3848;42.016;23.098;2024-02-28T03:06:30;9.17;;;5.20;;
7613;SDS011;3848;42.016;23.098;2024-02-28T03:08:57;11.50;;;5.73;;
7613;SDS011;3848;42.016;23.098;2024-02-28T03:11:24;12.67;;;6.00;;
7613;SDS011;3848;42.016;23.098;2024-02-28T03:13:51;8.23;;;5.40;;
7613;SDS011;3848;42.016;23.098;2024-02-28T03:16:19;12.40;;;6.30;;
7613;SDS011;3848;42.016;23.098;2024-02-28T03:18:47;5.87;;;5.13;;
7613;SDS011;3848;42.016;23.098;2024-02-28T03:21:14;14.10;;;5.47;;
7613;SDS011;3848;42.016;23.098;2024-02-28T03:23:42;12.70;;;5.83;;
7613;SDS011;3848;42.016;23.098;2024-02-28T03:26:09;8.77;;;6.63;;
7613;SDS011;3848;42.016;23.098;2024-02-28T03:28:36;7.27;;;5.60;;
7613;SDS011;3848;42.016;23.098;2024-02-28T03:31:03;9.60;;;5.83;;
7613;SDS011;3848;42.016;23.098;2024-02-28T03:33:31;10.30;;;5.53;;
7613;SDS011;3848;42.016;23.098;2024-02-28T03:36:00;8.77;;;5.93;;
7613;SDS011;3848;42.016;23.098;2024-02-28T03:38:27;13.80;;;6.87;;
7613;SDS011;3848;42.016;23.098;2024-02-28T03:40:54;16.23;;;6.43;;
7613;SDS011;3848;42.016;23.098;2024-02-28T03:43:21;8.90;;;6.30;;
7613;SDS011;3848;42.016;23.098;2024-02-28T03:45:48;10.40;;;6.40;;
7613;SDS011;3848;42.016;23.098;2024-02-28T03:48:15;9.97;;;6.53;;
7613;SDS011;3848;42.016;23.098;2024-02-28T03:50:43;13.93;;;7.40;;
7613;SDS011;3848;42.016;23.098;2024-02-28T03:53:10;10.67;;;5.47;;
7613;SDS011;3848;42.016;23.098;2024-02-28T03:55:37;17.37;;;6.53;;
7613;SDS011;3848;42.016;23.098;2024-02-28T03:58:04;15.37;;;6.97;;
7613;SDS011;3848;42.016;23.098;2024-02-28T04:00:33;9.47;;;6.13;;
7613;SDS011;3848;42.016;23.098;2024-02-28T04:03:01;14.23;;;6.93;;
7613;SDS011;3848;42.016;23.098;2024-02-28T04:05:28;12.63;;;6.50;;
7613;SDS011;3848;42.016;23.098;2024-02-28T04:07:57;14.73;;;6.90;;
7613;SDS011;3848;42.016;23.098;2024-02-28T04:10:24;10.10;;;6.77;;
7613;SDS011;3848;42.016;23.098;2024-02-28T04:12:51;9.53;;;6.80;;
7613;SDS011;3848;42.016;23.098;2024-02-28T04:15:17;11.00;;;7.47;;
7613;SDS011;3848;42.016;23.098;2024-02-28T04:17:44;12.67;;;7.80;;
7613;SDS011;3848;42.016;23.098;2024-02-28T04:20:12;13.03;;;7.33;;
7613;SDS011;3848;42.016;23.098;2024-02-28T04:22:39;10.87;;;7.30;;
7613;SDS011;3848;42.016;23.098;2024-02-28T04:25:08;12.50;;;8.00;;
7613;SDS011;3848;42.016;23.098;2024-02-28T04:27:35;12.70;;;6.83;;
7613;SDS011;3848;42.016;23.098;2024-02-28T04:30:03;10.17;;;6.80;;
7613;SDS011;3848;42.016;23.098;2024-02-28T04:32:31;14.63;;;7.90;;
7613;SDS011;3848;42.016;23.098;2024-02-28T04:34:58;20.03;;;8.63;;
7613;SDS011;3848;42.016;23.098;2024-02-28T04:37:25;16.50;;;7.80;;
7613;SDS011;3848;42.016;23.098;2024-02-28T04:39:52;11.53;;;7.37;;
7613;SDS011;3848;42.016;23.098;2024-02-28T04:42:20;11.27;;;6.53;;
7613;SDS011;3848;42.016;23.098;2024-02-28T04:44:47;13.10;;;6.70;;
7613;SDS011;3848;42.016;23.098;2024-02-28T04:47:15;14.43;;;7.23;;
7613;SDS011;3848;42.016;23.098;2024-02-28T04:49:41;18.10;;;7.37;;
7613;SDS011;3848;42.016;23.098;2024-02-28T04:52:08;11.20;;;6.47;;
7613;SDS011;3848;42.016;23.098;2024-02-28T04:54:35;15.70;;;7.47;;
7613;SDS011;3848;42.016;23.098;2024-02-28T04:57:02;10.33;;;7.07;;
7613;SDS011;3848;42.016;23.098;2024-02-28T04:59:31;10.57;;;7.57;;
7613;SDS011;3848;42.016;23.098;2024-02-28T05:01:58;22.43;;;9.27;;
7613;SDS011;3848;42.016;23.098;2024-02-28T05:04:25;12.53;;;6.67;;
7613;SDS011;3848;42.016;23.098;2024-02-28T05:06:52;15.83;;;7.67;;
7613;SDS011;3848;42.016;23.098;2024-02-28T05:09:19;15.80;;;7.53;;
7613;SDS011;3848;42.016;23.098;2024-02-28T05:11:46;12.37;;;8.87;;
7613;SDS011;3848;42.016;23.098;2024-02-28T05:14:13;29.80;;;8.20;;
7613;SDS011;3848;42.016;23.098;2024-02-28T05:16:41;22.43;;;10.23;;
7613;SDS011;3848;42.016;23.098;2024-02-28T05:19:08;22.90;;;11.43;;
7613;SDS011;3848;42.016;23.098;2024-02-28T05:21:39;27.67;;;24.83;;
7613;SDS011;3848;42.016;23.098;2024-02-28T05:24:07;19.43;;;11.27;;
7613;SDS011;3848;42.016;23.098;2024-02-28T05:26:34;17.57;;;11.40;;
7613;SDS011;3848;42.016;23.098;2024-02-28T05:29:02;20.53;;;12.47;;
7613;SDS011;3848;42.016;23.098;2024-02-28T05:31:29;34.97;;;15.57;;
7613;SDS011;3848;42.016;23.098;2024-02-28T05:33:59;19.47;;;17.27;;
7613;SDS011;3848;42.016;23.098;2024-02-28T05:36:28;24.40;;;18.37;;
7613;SDS011;3848;42.016;23.098;2024-02-28T05:38:56;23.23;;;16.90;;
7613;SDS011;3848;42.016;23.098;2024-02-28T05:41:24;33.30;;;23.70;;
7613;SDS011;3848;42.016;23.098;2024-02-28T05:43:51;26.77;;;15.13;;
7613;SDS011;3848;42.016;23.098;2024-02-28T05:46:18;27.63;;;23.43;;
7613;SDS011;3848;42.016;23.098;2024-02-28T05:48:47;39.20;;;20.17;;
7613;SDS011;3848;42.016;23.098;2024-02-28T05:51:16;31.93;;;19.53;;
7613;SDS011;3848;42.016;23.098;2024-02-28T05:53:48;33.97;;;13.87;;
7613;SDS011;3848;42.016;23.098;2024-02-28T05:56:15;16.20;;;10.87;;
7613;SDS011;3848;42.016;23.098;2024-02-28T05:58:45;17.60;;;10.63;;
7613;SDS011;3848;42.016;23.098;2024-02-28T06:01:13;21.07;;;13.17;;
7613;SDS011;3848;42.016;23.098;2024-02-28T06:03:42;25.53;;;13.00;;
7613;SDS011;3848;42.016;23.098;2024-02-28T06:06:11;15.87;;;10.77;;
7613;SDS011;3848;42.016;23.098;2024-02-28T06:08:40;16.17;;;11.53;;
7613;SDS011;3848;42.016;23.098;2024-02-28T06:11:07;23.70;;;12.33;;
7613;SDS011;3848;42.016;23.098;2024-02-28T06:13:34;26.97;;;13.97;;
7613;SDS011;3848;42.016;23.098;2024-02-28T06:16:05;23.83;;;14.17;;
7613;SDS011;3848;42.016;23.098;2024-02-28T06:18:40;29.97;;;17.40;;
7613;SDS011;3848;42.016;23.098;2024-02-28T06:21:07;37.93;;;22.20;;
7613;SDS011;3848;42.016;23.098;2024-02-28T06:23:34;27.23;;;18.37;;
7613;SDS011;3848;42.016;23.098;2024-02-28T06:26:03;33.73;;;19.13;;
7613;SDS011;3848;42.016;23.098;2024-02-28T06:28:30;25.27;;;16.77;;
7613;SDS011;3848;42.016;23.098;2024-02-28T06:30:57;26.43;;;16.50;;
7613;SDS011;3848;42.016;23.098;2024-02-28T06:33:24;26.83;;;17.40;;
7613;SDS011;3848;42.016;23.098;2024-02-28T06:35:51;34.00;;;17.10;;
7613;SDS011;3848;42.016;23.098;2024-02-28T06:38:18;29.67;;;17.63;;
7613;SDS011;3848;42.016;23.098;2024-02-28T06:40:45;34.87;;;18.77;;
7613;SDS011;3848;42.016;23.098;2024-02-28T06:43:14;27.60;;;17.97;;
7613;SDS011;3848;42.016;23.098;2024-02-28T06:45:42;31.57;;;14.07;;
7613;SDS011;3848;42.016;23.098;2024-02-28T06:48:09;33.83;;;21.80;;
7613;SDS011;3848;42.016;23.098;2024-02-28T06:50:36;27.87;;;17.73;;
7613;SDS011;3848;42.016;23.098;2024-02-28T06:53:03;21.07;;;14.20;;
7613;SDS011;3848;42.016;23.098;2024-02-28T06:55:31;21.73;;;14.83;;
7613;SDS011;3848;42.016;23.098;2024-02-28T06:57:58;26.43;;;15.13;;
7613;SDS011;3848;42.016;23.098;2024-02-28T07:00:27;30.97;;;15.30;;
7613;SDS011;3848;42.016;23.098;2024-02-28T07:02:54;61.93;;;14.37;;
7613;SDS011;3848;42.016;23.098;2024-02-28T07:05:21;27.03;;;15.53;;
7613;SDS011;3848;42.016;23.098;2024-02-28T07:07:49;21.17;;;13.70;;
7613;SDS011;3848;42.016;23.098;2024-02-28T07:10:20;23.20;;;13.50;;
7613;SDS011;3848;42.016;23.098;2024-02-28T07:12:50;43.13;;;24.40;;
7613;SDS011;3848;42.016;23.098;2024-02-28T07:15:17;39.43;;;24.57;;
7613;SDS011;3848;42.016;23.098;2024-02-28T07:17:48;23.83;;;13.03;;
7613;SDS011;3848;42.016;23.098;2024-02-28T07:20:15;23.10;;;12.53;;
7613;SDS011;3848;42.016;23.098;2024-02-28T07:22:42;25.07;;;13.67;;
7613;SDS011;3848;42.016;23.098;2024-02-28T07:25:09;41.63;;;19.17;;
7613;SDS011;3848;42.016;23.098;2024-02-28T07:27:36;43.30;;;19.93;;
7613;SDS011;3848;42.016;23.098;2024-02-28T07:30:04;39.10;;;18.00;;
7613;SDS011;3848;42.016;23.098;2024-02-28T07:32:31;30.27;;;15.37;;
7613;SDS011;3848;42.016;23.098;2024-02-28T07:35:01;26.70;;;16.40;;
7613;SDS011;3848;42.016;23.098;2024-02-28T07:37:28;29.70;;;15.73;;
7613;SDS011;3848;42.016;23.098;2024-02-28T07:39:55;31.00;;;16.90;;
7613;SDS011;3848;42.016;23.098;2024-02-28T07:42:22;25.17;;;16.53;;
7613;SDS011;3848;42.016;23.098;2024-02-28T07:44:49;40.37;;;16.70;;
7613;SDS011;3848;42.016;23.098;2024-02-28T07:47:21;26.53;;;17.93;;
7613;SDS011;3848;42.016;23.098;2024-02-28T07:49:49;26.60;;;15.60;;
7613;SDS011;3848;42.016;23.098;2024-02-28T07:52:17;52.73;;;17.50;;
7613;SDS011;3848;42.016;23.098;2024-02-28T07:54:44;39.13;;;17.50;;
7613;SDS011;3848;42.016;23.098;2024-02-28T07:57:11;45.60;;;20.87;;
7613;SDS011;3848;42.016;23.098;2024-02-28T07:59:40;35.63;;;18.07;;
7613;SDS011;3848;42.016;23.098;2024-02-28T08:02:07;35.90;;;15.97;;
7613;SDS011;3848;42.016;23.098;2024-02-28T08:04:35;29.30;;;14.63;;
7613;SDS011;3848;42.016;23.098;2024-02-28T08:07:02;31.57;;;14.50;;
7613;SDS011;3848;42.016;23.098;2024-02-28T08:09:31;47.83;;;18.93;;
7613;SDS011;3848;42.016;23.098;2024-02-28T08:11:58;31.17;;;16.30;;
7613;SDS011;3848;42.016;23.098;2024-02-28T08:14:25;30.97;;;17.03;;
7613;SDS011;3848;42.016;23.098;2024-02-28T08:16:53;30.93;;;14.67;;
7613;SDS011;3848;42.016;23.098;2024-02-28T08:19:20;43.60;;;13.37;;
7613;SDS011;3848;42.016;23.098;2024-02-28T08:21:47;21.40;;;11.13;;
7613;SDS011;3848;42.016;23.098;2024-02-28T08:24:15;23.50;;;12.90;;
7613;SDS011;3848;42.016;23.098;2024-02-28T08:26:43;25.30;;;13.07;;
7613;SDS011;3848;42.016;23.098;2024-02-28T08:29:10;17.43;;;10.97;;
7613;SDS011;3848;42.016;23.098;2024-02-28T08:31:41;20.53;;;11.67;;
7613;SDS011;3848;42.016;23.098;2024-02-28T08:34:09;23.53;;;11.80;;
7613;SDS011;3848;42.016;23.098;2024-02-28T08:36:36;26.70;;;13.70;;
7613;SDS011;3848;42.016;23.098;2024-02-28T08:39:03;29.70;;;15.10;;
7613;SDS011;3848;42.016;23.098;2024-02-28T08:41:31;24.50;;;14.47;;
7613;SDS011;3848;42.016;23.098;2024-02-28T08:44:00;29.07;;;12.10;;
7613;SDS011;3848;42.016;23.098;2024-02-28T08:46:28;23.17;;;11.13;;
7613;SDS011;3848;42.016;23.098;2024-02-28T08:48:55;27.03;;;9.23;;
7613;SDS011;3848;42.016;23.098;2024-02-28T08:51:22;23.90;;;10.73;;
7613;SDS011;3848;42.016;23.098;2024-02-28T08:53:50;15.33;;;8.47;;
7613;SDS011;3848;42.016;23.098;2024-02-28T08:56:19;12.17;;;7.43;;
7613;SDS011;3848;42.016;23.098;2024-02-28T08:58:46;13.90;;;8.10;;
7613;SDS011;3848;42.016;23.098;2024-02-28T09:01:14;13.77;;;7.03;;
7613;SDS011;3848;42.016;23.098;2024-02-28T09:03:42;15.83;;;8.43;;
7613;SDS011;3848;42.016;23.098;2024-02-28T09:06:09;15.30;;;8.60;;
7613;SDS011;3848;42.016;23.098;2024-02-28T09:08:36;17.40;;;8.40;;
7613;SDS011;3848;42.016;23.098;2024-02-28T09:11:03;19.30;;;9.07;;
7613;SDS011;3848;42.016;23.098;2024-02-28T09:13:31;15.67;;;8.33;;
7613;SDS011;3848;42.016;23.098;2024-02-28T09:15:58;15.07;;;8.50;;
7613;SDS011;3848;42.016;23.098;2024-02-28T09:18:27;16.03;;;8.90;;
7613;SDS011;3848;42.016;23.098;2024-02-28T09:20:54;16.03;;;8.63;;
7613;SDS011;3848;42.016;23.098;2024-02-28T09:23:21;15.50;;;8.47;;
7613;SDS011;3848;42.016;23.098;2024-02-28T09:25:48;30.23;;;8.90;;
7613;SDS011;3848;42.016;23.098;2024-02-28T09:28:15;18.27;;;7.80;;
7613;SDS011;3848;42.016;23.098;2024-02-28T09:30:42;29.33;;;8.43;;
7613;SDS011;3848;42.016;23.098;2024-02-28T09:33:09;18.53;;;7.67;;
7613;SDS011;3848;42.016;23.098;2024-02-28T09:35:38;20.40;;;7.53;;
7613;SDS011;3848;42.016;23.098;2024-02-28T09:38:06;15.50;;;6.40;;
7613;SDS011;3848;42.016;23.098;2024-02-28T09:40:35;16.00;;;7.23;;
7613;SDS011;3848;42.016;23.098;2024-02-28T09:43:11;10.93;;;7.23;;
7613;SDS011;3848;42.016;23.098;2024-02-28T09:45:46;20.93;;;7.93;;
7613;SDS011;3848;42.016;23.098;2024-02-28T09:48:14;17.07;;;6.70;;
7613;SDS011;3848;42.016;23.098;2024-02-28T09:50:44;17.40;;;6.57;;
7613;SDS011;3848;42.016;23.098;2024-02-28T09:53:12;17.33;;;7.87;;
7613;SDS011;3848;42.016;23.098;2024-02-28T09:55:39;13.60;;;9.60;;
7613;SDS011;3848;42.016;23.098;2024-02-28T09:58:09;14.20;;;8.87;;
7613;SDS011;3848;42.016;23.098;2024-02-28T10:00:38;19.67;;;8.57;;
7613;SDS011;3848;42.016;23.098;2024-02-28T10:03:09;21.63;;;8.23;;
7613;SDS011;3848;42.016;23.098;2024-02-28T10:05:38;12.33;;;6.83;;
7613;SDS011;3848;42.016;23.098;2024-02-28T10:08:07;13.60;;;7.37;;
7613;SDS011;3848;42.016;23.098;2024-02-28T10:10:36;12.10;;;6.20;;
7613;SDS011;3848;42.016;23.098;2024-02-28T10:13:04;16.07;;;6.70;;
7613;SDS011;3848;42.016;23.098;2024-02-28T10:15:31;11.07;;;5.17;;
7613;SDS011;3848;42.016;23.098;2024-02-28T10:17:58;9.27;;;5.17;;
7613;SDS011;3848;42.016;23.098;2024-02-28T10:20:25;9.80;;;4.60;;
7613;SDS011;3848;42.016;23.098;2024-02-28T10:22:53;13.30;;;4.90;;
7613;SDS011;3848;42.016;23.098;2024-02-28T10:25:21;7.50;;;5.67;;
7613;SDS011;3848;42.016;23.098;2024-02-28T10:27:52;8.63;;;4.90;;
7613;SDS011;3848;42.016;23.098;2024-02-28T10:30:20;11.17;;;5.13;;
7613;SDS011;3848;42.016;23.098;2024-02-28T10:32:49;19.10;;;5.10;;
7613;SDS011;3848;42.016;23.098;2024-02-28T10:35:17;7.77;;;4.93;;
7613;SDS011;3848;42.016;23.098;2024-02-28T10:37:45;6.37;;;3.80;;
7613;SDS011;3848;42.016;23.098;2024-02-28T10:40:13;12.87;;;6.07;;
7613;SDS011;3848;42.016;23.098;2024-02-28T10:42:43;14.80;;;3.97;;
7613;SDS011;3848;42.016;23.098;2024-02-28T10:45:10;11.10;;;3.53;;
7613;SDS011;3848;42.016;23.098;2024-02-28T10:47:37;5.03;;;3.80;;
7613;SDS011;3848;42.016;23.098;2024-02-28T10:50:06;5.13;;;3.70;;
7613;SDS011;3848;42.016;23.098;2024-02-28T10:52:34;9.43;;;4.87;;
7613;SDS011;3848;42.016;23.098;2024-02-28T10:55:05;9.43;;;3.43;;
7613;SDS011;3848;42.016;23.098;2024-02-28T10:57:35;30.03;;;3.83;;
7613;SDS011;3848;42.016;23.098;2024-02-28T11:00:05;10.97;;;2.63;;
7613;SDS011;3848;42.016;23.098;2024-02-28T11:02:33;6.33;;;4.30;;
7613;SDS011;3848;42.016;23.098;2024-02-28T11:05:01;4.67;;;2.43;;
7613;SDS011;3848;42.016;23.098;2024-02-28T11:07:30;4.17;;;2.40;;
7613;SDS011;3848;42.016;23.098;2024-02-28T11:10:10;9.93;;;2.00;;
7613;SDS011;3848;42.016;23.098;2024-02-28T11:12:54;6.83;;;2.33;;
7613;SDS011;3848;42.016;23.098;2024-02-28T11:15:24;5.03;;;2.50;;
7613;SDS011;3848;42.016;23.098;2024-02-28T11:17:52;3.17;;;1.83;;
7613;SDS011;3848;42.016;23.098;2024-02-28T11:20:19;2.37;;;1.90;;
7613;SDS011;3848;42.016;23.098;2024-02-28T11:22:51;2.10;;;1.60;;
7613;SDS011;3848;42.016;23.098;2024-02-28T11:25:24;13.03;;;2.30;;
7613;SDS011;3848;42.016;23.098;2024-02-28T11:27:51;7.87;;;2.30;;
7613;SDS011;3848;42.016;23.098;2024-02-28T11:30:18;3.03;;;2.10;;
7613;SDS011;3848;42.016;23.098;2024-02-28T11:32:46;7.50;;;2.70;;
7613;SDS011;3848;42.016;23.098;2024-02-28T11:35:14;2.37;;;2.17;;
7613;SDS011;3848;42.016;23.098;2024-02-28T11:37:44;5.17;;;2.13;;
7613;SDS011;3848;42.016;23.098;2024-02-28T11:40:11;7.73;;;1.70;;
7613;SDS011;3848;42.016;23.098;2024-02-28T11:42:43;8.30;;;2.83;;
7613;SDS011;3848;42.016;23.098;2024-02-28T11:45:10;2.77;;;2.37;;
7613;SDS011;3848;42.016;23.098;2024-02-28T11:47:38;2.37;;;2.10;;
7613;SDS011;3848;42.016;23.098;2024-02-28T11:50:08;6.10;;;2.30;;
7613;SDS011;3848;42.016;23.098;2024-02-28T11:52:35;8.13;;;2.10;;
7613;SDS011;3848;42.016;23.098;2024-02-28T11:55:02;6.73;;;2.40;;
7613;SDS011;3848;42.016;23.098;2024-02-28T11:57:30;8.43;;;3.60;;
7613;SDS011;3848;42.016;23.098;2024-02-28T12:00:01;3.73;;;2.40;;
7613;SDS011;3848;42.016;23.098;2024-02-28T12:02:29;5.70;;;2.33;;
7613;SDS011;3848;42.016;23.098;2024-02-28T12:05:00;4.77;;;2.23;;
7613;SDS011;3848;42.016;23.098;2024-02-28T12:07:28;3.13;;;2.20;;
7613;SDS011;3848;42.016;23.098;2024-02-28T12:09:55;7.13;;;2.20;;
7613;SDS011;3848;42.016;23.098;2024-02-28T12:12:23;4.20;;;2.67;;
7613;SDS011;3848;42.016;23.098;2024-02-28T12:14:50;4.43;;;2.87;;
7613;SDS011;3848;42.016;23.098;2024-02-28T12:17:17;5.03;;;2.37;;
7613;SDS011;3848;42.016;23.098;2024-02-28T12:19:45;6.93;;;2.30;;
7613;SDS011;3848;42.016;23.098;2024-02-28T12:22:16;5.77;;;2.83;;
7613;SDS011;3848;42.016;23.098;2024-02-28T12:24:45;3.50;;;2.57;;
7613;SDS011;3848;42.016;23.098;2024-02-28T12:27:12;5.93;;;3.00;;
7613;SDS011;3848;42.016;23.098;2024-02-28T12:29:39;6.43;;;2.80;;
7613;SDS011;3848;42.016;23.098;2024-02-28T12:32:07;4.20;;;2.70;;
7613;SDS011;3848;42.016;23.098;2024-02-28T12:34:34;8.80;;;2.50;;
7613;SDS011;3848;42.016;23.098;2024-02-28T12:37:01;3.43;;;2.50;;
7613;SDS011;3848;42.016;23.098;2024-02-28T12:39:30;3.63;;;2.27;;
7613;SDS011;3848;42.016;23.098;2024-02-28T12:42:00;10.57;;;2.70;;
7613;SDS011;3848;42.016;23.098;2024-02-28T12:44:27;7.23;;;2.70;;
7613;SDS011;3848;42.016;23.098;2024-02-28T12:46:55;8.87;;;2.17;;
7613;SDS011;3848;42.016;23.098;2024-02-28T12:49:22;3.53;;;2.17;;
7613;SDS011;3848;42.016;23.098;2024-02-28T12:51:49;9.10;;;2.57;;
7613;SDS011;3848;42.016;23.098;2024-02-28T12:54:16;5.97;;;2.50;;
7613;SDS011;3848;42.016;23.098;2024-02-28T12:56:46;6.43;;;2.40;;
7613;SDS011;3848;42.016;23.098;2024-02-28T12:59:14;4.03;;;2.43;;
7613;SDS011;3848;42.016;23.098;2024-02-28T13:01:42;13.67;;;2.80;;
7613;SDS011;3848;42.016;23.098;2024-02-28T13:04:12;2.63;;;2.00;;
7613;SDS011;3848;42.016;23.098;2024-02-28T13:06:41;3.90;;;2.10;;
7613;SDS011;3848;42.016;23.098;2024-02-28T13:09:08;5.67;;;2.73;;
7613;SDS011;3848;42.016;23.098;2024-02-28T13:11:38;2.10;;;1.90;;
7613;SDS011;3848;42.016;23.098;2024-02-28T13:14:05;4.97;;;2.50;;
7613;SDS011;3848;42.016;23.098;2024-02-28T13:16:35;3.23;;;2.20;;
7613;SDS011;3848;42.016;23.098;2024-02-28T13:19:02;4.00;;;2.67;;
7613;SDS011;3848;42.016;23.098;2024-02-28T13:21:30;4.47;;;2.20;;
7613;SDS011;3848;42.016;23.098;2024-02-28T13:23:59;6.33;;;2.63;;
7613;SDS011;3848;42.016;23.098;2024-02-28T13:26:28;8.83;;;3.23;;
7613;SDS011;3848;42.016;23.098;2024-02-28T13:28:55;5.20;;;2.70;;
7613;SDS011;3848;42.016;23.098;2024-02-28T13:31:23;2.73;;;2.10;;
7613;SDS011;3848;42.016;23.098;2024-02-28T13:33:51;7.97;;;2.97;;
7613;SDS011;3848;42.016;23.098;2024-02-28T13:36:18;108.20;;;52.37;;
7613;SDS011;3848;42.016;23.098;2024-02-28T13:38:45;44.53;;;20.53;;
7613;SDS011;3848;42.016;23.098;2024-02-28T13:41:12;3.60;;;3.07;;
7613;SDS011;3848;42.016;23.098;2024-02-28T13:43:42;16.17;;;4.10;;
7613;SDS011;3848;42.016;23.098;2024-02-28T13:46:09;9.07;;;3.77;;
7613;SDS011;3848;42.016;23.098;2024-02-28T13:48:37;5.00;;;2.93;;
7613;SDS011;3848;42.016;23.098;2024-02-28T13:51:06;4.17;;;3.03;;
7613;SDS011;3848;42.016;23.098;2024-02-28T13:53:34;4.67;;;3.30;;
7613;SDS011;3848;42.016;23.098;2024-02-28T13:56:02;6.17;;;3.33;;
7613;SDS011;3848;42.016;23.098;2024-02-28T13:58:30;5.70;;;3.03;;
7613;SDS011;3848;42.016;23.098;2024-02-28T14:00:58;5.03;;;2.83;;
7613;SDS011;3848;42.016;23.098;2024-02-28T14:03:25;4.77;;;2.40;;
7613;SDS011;3848;42.016;23.098;2024-02-28T14:05:53;6.03;;;2.63;;
7613;SDS011;3848;42.016;23.098;2024-02-28T14:08:24;4.30;;;2.57;;
7613;SDS011;3848;42.016;23.098;2024-02-28T14:11:00;2.63;;;2.37;;
7613;SDS011;3848;42.016;23.098;2024-02-28T14:13:27;14.73;;;3.93;;
7613;SDS011;3848;42.016;23.098;2024-02-28T14:15:54;11.00;;;3.37;;
7613;SDS011;3848;42.016;23.098;2024-02-28T14:18:21;8.30;;;4.23;;
7613;SDS011;3848;42.016;23.098;2024-02-28T14:20:49;5.97;;;3.30;;
7613;SDS011;3848;42.016;23.098;2024-02-28T14:23:19;5.20;;;3.43;;
7613;SDS011;3848;42.016;23.098;2024-02-28T14:25:48;5.37;;;2.50;;
7613;SDS011;3848;42.016;23.098;2024-02-28T14:28:16;16.07;;;4.30;;
7613;SDS011;3848;42.016;23.098;2024-02-28T14:30:44;13.93;;;8.87;;
7613;SDS011;3848;42.016;23.098;2024-02-28T14:33:16;3.27;;;2.70;;
7613;SDS011;3848;42.016;23.098;2024-02-28T14:35:43;33.80;;;11.97;;
7613;SDS011;3848;42.016;23.098;2024-02-28T14:38:10;5.53;;;3.90;;
7613;SDS011;3848;42.016;23.098;2024-02-28T14:40:37;7.43;;;5.87;;
7613;SDS011;3848;42.016;23.098;2024-02-28T14:43:06;8.30;;;3.87;;
7613;SDS011;3848;42.016;23.098;2024-02-28T14:45:35;4.97;;;2.97;;
7613;SDS011;3848;42.016;23.098;2024-02-28T14:48:02;9.53;;;4.77;;
7613;SDS011;3848;42.016;23.098;2024-02-28T14:50:31;3.33;;;2.90;;
7613;SDS011;3848;42.016;23.098;2024-02-28T14:52:58;4.47;;;2.60;;
7613;SDS011;3848;42.016;23.098;2024-02-28T14:55:25;4.33;;;3.43;;